sensor_id;sensor_type;location;lat;lon;timestamp;P1;durP1;ratioP1;P2;durP2;ratioP2
48881;SDS011;57063;51.406;-2.402;2023-03-29T00:00:37;567.28;;;130.02;;
48881;SDS011;57063;51.406;-2.402;2023-03-29T00:03:02;569.17;;;134.95;;
48881;SDS011;57063;51.406;-2.402;2023-03-29T00:05:28;569.10;;;131.43;;
48881;SDS011;57063;51.406;-2.402;2023-03-29T00:07:58;569.15;;;130.55;;
48881;SDS011;57063;51.406;-2.402;2023-03-29T00:10:28;574.25;;;131.90;;
48881;SDS011;57063;51.406;-2.402;2023-03-29T00:12:56;570.13;;;131.18;;
48881;SDS011;57063;51.406;-2.402;2023-03-29T00:15:22;572.47;;;132.73;;
48881;SDS011;57063;51.406;-2.402;2023-03-29T00:17:47;572.08;;;131.02;;
48881;SDS011;57063;51.406;-2.402;2023-03-29T00:20:13;575.78;;;132.55;;
48881;SDS011;57063;51.406;-2.402;2023-03-29T00:22:39;563.55;;;130.82;;
48881;SDS011;57063;51.406;-2.402;2023-03-29T00:25:10;575.47;;;128.23;;
48881;SDS011;57063;51.406;-2.402;2023-03-29T00:27:36;560.80;;;128.98;;
48881;SDS011;57063;51.406;-2.402;2023-03-29T00:30:03;566.15;;;129.93;;
48881;SDS011;57063;51.406;-2.402;2023-03-29T00:32:30;567.47;;;129.63;;
48881;SDS011;57063;51.406;-2.402;2023-03-29T00:34:56;568.30;;;130.80;;
48881;SDS011;57063;51.406;-2.402;2023-03-29T00:37:22;565.45;;;130.23;;
48881;SDS011;57063;51.406;-2.402;2023-03-29T00:39:53;570.95;;;131.27;;
48881;SDS011;57063;51.406;-2.402;2023-03-29T00:42:20;569.47;;;129.82;;
48881;SDS011;57063;51.406;-2.402;2023-03-29T00:47:28;573.28;;;131.75;;
48881;SDS011;57063;51.406;-2.402;2023-03-29T00:49:57;570.33;;;131.10;;
48881;SDS011;57063;51.406;-2.402;2023-03-29T00:52:27;568.58;;;130.90;;
48881;SDS011;57063;51.406;-2.402;2023-03-29T00:54:56;573.03;;;128.00;;
48881;SDS011;57063;51.406;-2.402;2023-03-29T00:57:25;565.42;;;130.90;;
48881;SDS011;57063;51.406;-2.402;2023-03-29T00:59:54;565.45;;;130.75;;
48881;SDS011;57063;51.406;-2.402;2023-03-29T01:02:22;567.78;;;128.52;;
48881;SDS011;57063;51.406;-2.402;2023-03-29T01:04:58;576.13;;;130.48;;
48881;SDS011;57063;51.406;-2.402;2023-03-29T01:07:32;566.42;;;126.22;;
48881;SDS011;57063;51.406;-2.402;2023-03-29T01:10:21;566.00;;;128.15;;
48881;SDS011;57063;51.406;-2.402;2023-03-29T01:12:56;570.08;;;131.88;;
48881;SDS011;57063;51.406;-2.402;2023-03-29T01:15:25;565.50;;;131.63;;
48881;SDS011;57063;51.406;-2.402;2023-03-29T01:17:53;572.60;;;129.80;;
48881;SDS011;57063;51.406;-2.402;2023-03-29T01:20:20;567.05;;;128.65;;
48881;SDS011;57063;51.406;-2.402;2023-03-29T01:22:58;567.72;;;130.32;;
48881;SDS011;57063;51.406;-2.402;2023-03-29T01:28:43;561.63;;;128.45;;
48881;SDS011;57063;51.406;-2.402;2023-03-29T01:31:18;560.13;;;125.47;;
48881;SDS011;57063;51.406;-2.402;2023-03-29T01:33:50;564.13;;;126.78;;
48881;SDS011;57063;51.406;-2.402;2023-03-29T01:36:21;558.45;;;127.47;;
48881;SDS011;57063;51.406;-2.402;2023-03-29T01:38:56;560.22;;;129.52;;
48881;SDS011;57063;51.406;-2.402;2023-03-29T01:44:11;556.45;;;126.70;;
48881;SDS011;57063;51.406;-2.402;2023-03-29T01:46:44;562.80;;;124.18;;
48881;SDS011;57063;51.406;-2.402;2023-03-29T01:49:13;562.70;;;126.85;;
48881;SDS011;57063;51.406;-2.402;2023-03-29T01:51:54;560.97;;;128.15;;
48881;SDS011;57063;51.406;-2.402;2023-03-29T01:54:27;561.75;;;127.18;;
48881;SDS011;57063;51.406;-2.402;2023-03-29T01:56:57;557.28;;;125.30;;
48881;SDS011;57063;51.406;-2.402;2023-03-29T01:59:24;564.17;;;127.32;;
48881;SDS011;57063;51.406;-2.402;2023-03-29T02:01:59;565.83;;;128.15;;
48881;SDS011;57063;51.406;-2.402;2023-03-29T02:04:33;566.03;;;128.95;;
48881;SDS011;57063;51.406;-2.402;2023-03-29T02:07:03;561.65;;;127.57;;
48881;SDS011;57063;51.406;-2.402;2023-03-29T02:09:32;559.28;;;128.15;;
48881;SDS011;57063;51.406;-2.402;2023-03-29T02:12:01;558.97;;;125.90;;
48881;SDS011;57063;51.406;-2.402;2023-03-29T02:14:28;565.10;;;128.88;;
48881;SDS011;57063;51.406;-2.402;2023-03-29T02:16:54;564.40;;;128.15;;
48881;SDS011;57063;51.406;-2.402;2023-03-29T02:19:20;563.00;;;129.10;;
48881;SDS011;57063;51.406;-2.402;2023-03-29T02:21:52;563.28;;;128.38;;
48881;SDS011;57063;51.406;-2.402;2023-03-29T02:24:25;557.47;;;124.55;;
48881;SDS011;57063;51.406;-2.402;2023-03-29T02:26:56;559.75;;;126.53;;
48881;SDS011;57063;51.406;-2.402;2023-03-29T02:29:23;558.72;;;126.35;;
48881;SDS011;57063;51.406;-2.402;2023-03-29T02:35:05;562.10;;;127.03;;
48881;SDS011;57063;51.406;-2.402;2023-03-29T02:37:37;555.72;;;125.93;;
48881;SDS011;57063;51.406;-2.402;2023-03-29T02:40:07;552.55;;;124.68;;
48881;SDS011;57063;51.406;-2.402;2023-03-29T02:42:36;563.47;;;127.60;;
48881;SDS011;57063;51.406;-2.402;2023-03-29T02:45:04;559.92;;;128.23;;
48881;SDS011;57063;51.406;-2.402;2023-03-29T02:47:31;557.30;;;126.60;;
48881;SDS011;57063;51.406;-2.402;2023-03-29T02:50:05;556.88;;;124.35;;
48881;SDS011;57063;51.406;-2.402;2023-03-29T02:52:37;556.35;;;124.93;;
48881;SDS011;57063;51.406;-2.402;2023-03-29T02:55:09;564.17;;;130.65;;
48881;SDS011;57063;51.406;-2.402;2023-03-29T02:57:40;555.30;;;126.78;;
48881;SDS011;57063;51.406;-2.402;2023-03-29T03:00:08;559.03;;;129.35;;
48881;SDS011;57063;51.406;-2.402;2023-03-29T03:02:34;559.47;;;127.93;;
48881;SDS011;57063;51.406;-2.402;2023-03-29T03:05:01;562.85;;;128.40;;
48881;SDS011;57063;51.406;-2.402;2023-03-29T03:07:27;560.63;;;127.63;;
48881;SDS011;57063;51.406;-2.402;2023-03-29T03:09:53;555.35;;;126.80;;
48881;SDS011;57063;51.406;-2.402;2023-03-29T03:12:19;555.75;;;125.20;;
48881;SDS011;57063;51.406;-2.402;2023-03-29T03:14:45;561.00;;;125.78;;
48881;SDS011;57063;51.406;-2.402;2023-03-29T03:17:10;557.08;;;126.43;;
48881;SDS011;57063;51.406;-2.402;2023-03-29T03:19:36;561.80;;;128.27;;
48881;SDS011;57063;51.406;-2.402;2023-03-29T03:22:02;401.80;;;117.55;;
48881;SDS011;57063;51.406;-2.402;2023-03-29T03:24:29;409.55;;;117.95;;
48881;SDS011;57063;51.406;-2.402;2023-03-29T03:26:56;399.38;;;113.57;;
48881;SDS011;57063;51.406;-2.402;2023-03-29T03:29:22;447.52;;;122.10;;
48881;SDS011;57063;51.406;-2.402;2023-03-29T03:31:48;457.77;;;122.70;;
48881;SDS011;57063;51.406;-2.402;2023-03-29T03:34:14;441.67;;;119.00;;
48881;SDS011;57063;51.406;-2.402;2023-03-29T03:36:39;449.40;;;122.18;;
48881;SDS011;57063;51.406;-2.402;2023-03-29T03:39:05;408.63;;;116.68;;
48881;SDS011;57063;51.406;-2.402;2023-03-29T03:41:31;416.25;;;118.03;;
48881;SDS011;57063;51.406;-2.402;2023-03-29T03:43:58;411.63;;;117.03;;
48881;SDS011;57063;51.406;-2.402;2023-03-29T03:46:24;419.27;;;118.57;;
48881;SDS011;57063;51.406;-2.402;2023-03-29T03:48:50;402.63;;;113.07;;
48881;SDS011;57063;51.406;-2.402;2023-03-29T03:51:15;384.75;;;110.70;;
48881;SDS011;57063;51.406;-2.402;2023-03-29T03:53:41;405.77;;;116.13;;
48881;SDS011;57063;51.406;-2.402;2023-03-29T03:56:06;377.52;;;111.53;;
48881;SDS011;57063;51.406;-2.402;2023-03-29T03:58:35;372.40;;;112.82;;
48881;SDS011;57063;51.406;-2.402;2023-03-29T04:01:01;386.73;;;111.18;;
48881;SDS011;57063;51.406;-2.402;2023-03-29T04:03:27;395.95;;;115.32;;
48881;SDS011;57063;51.406;-2.402;2023-03-29T04:05:53;379.17;;;110.57;;
48881;SDS011;57063;51.406;-2.402;2023-03-29T04:08:19;401.80;;;111.68;;
48881;SDS011;57063;51.406;-2.402;2023-03-29T04:10:53;419.90;;;117.03;;
48881;SDS011;57063;51.406;-2.402;2023-03-29T04:13:20;414.80;;;117.07;;
48881;SDS011;57063;51.406;-2.402;2023-03-29T04:15:46;399.73;;;113.65;;
48881;SDS011;57063;51.406;-2.402;2023-03-29T04:18:13;406.23;;;115.60;;
48881;SDS011;57063;51.406;-2.402;2023-03-29T04:20:40;403.70;;;114.22;;
48881;SDS011;57063;51.406;-2.402;2023-03-29T04:23:05;420.73;;;118.25;;
48881;SDS011;57063;51.406;-2.402;2023-03-29T04:25:30;406.02;;;116.18;;
48881;SDS011;57063;51.406;-2.402;2023-03-29T04:27:56;432.98;;;119.70;;
48881;SDS011;57063;51.406;-2.402;2023-03-29T04:30:21;421.77;;;118.38;;
48881;SDS011;57063;51.406;-2.402;2023-03-29T04:32:47;435.50;;;118.85;;
48881;SDS011;57063;51.406;-2.402;2023-03-29T04:35:12;462.05;;;119.75;;
48881;SDS011;57063;51.406;-2.402;2023-03-29T04:37:38;439.40;;;124.43;;
48881;SDS011;57063;51.406;-2.402;2023-03-29T04:40:06;425.58;;;118.75;;
48881;SDS011;57063;51.406;-2.402;2023-03-29T04:42:33;439.60;;;119.80;;
48881;SDS011;57063;51.406;-2.402;2023-03-29T04:45:00;481.23;;;127.95;;
48881;SDS011;57063;51.406;-2.402;2023-03-29T04:47:25;444.25;;;120.18;;
48881;SDS011;57063;51.406;-2.402;2023-03-29T04:49:53;439.38;;;117.50;;
48881;SDS011;57063;51.406;-2.402;2023-03-29T04:52:19;435.45;;;117.57;;
48881;SDS011;57063;51.406;-2.402;2023-03-29T04:54:45;440.38;;;117.10;;
48881;SDS011;57063;51.406;-2.402;2023-03-29T04:57:10;436.83;;;120.30;;
48881;SDS011;57063;51.406;-2.402;2023-03-29T04:59:36;434.58;;;119.13;;
48881;SDS011;57063;51.406;-2.402;2023-03-29T05:02:01;425.02;;;116.55;;
48881;SDS011;57063;51.406;-2.402;2023-03-29T05:04:28;429.67;;;117.20;;
48881;SDS011;57063;51.406;-2.402;2023-03-29T05:06:54;423.25;;;115.18;;
48881;SDS011;57063;51.406;-2.402;2023-03-29T05:09:21;424.20;;;118.13;;
48881;SDS011;57063;51.406;-2.402;2023-03-29T05:11:47;429.20;;;118.80;;
48881;SDS011;57063;51.406;-2.402;2023-03-29T05:14:13;425.63;;;116.43;;
48881;SDS011;57063;51.406;-2.402;2023-03-29T05:16:39;415.55;;;116.65;;
48881;SDS011;57063;51.406;-2.402;2023-03-29T05:19:05;387.30;;;112.35;;
48881;SDS011;57063;51.406;-2.402;2023-03-29T05:21:30;390.83;;;112.93;;
48881;SDS011;57063;51.406;-2.402;2023-03-29T05:23:57;386.20;;;112.45;;
48881;SDS011;57063;51.406;-2.402;2023-03-29T05:26:22;384.73;;;108.88;;
48881;SDS011;57063;51.406;-2.402;2023-03-29T05:28:48;413.98;;;114.25;;
48881;SDS011;57063;51.406;-2.402;2023-03-29T05:31:14;389.25;;;113.00;;
48881;SDS011;57063;51.406;-2.402;2023-03-29T05:33:40;421.42;;;115.97;;
48881;SDS011;57063;51.406;-2.402;2023-03-29T05:36:07;432.77;;;119.10;;
48881;SDS011;57063;51.406;-2.402;2023-03-29T05:38:35;425.13;;;116.70;;
48881;SDS011;57063;51.406;-2.402;2023-03-29T05:41:01;419.30;;;116.13;;
48881;SDS011;57063;51.406;-2.402;2023-03-29T05:43:27;374.42;;;109.15;;
48881;SDS011;57063;51.406;-2.402;2023-03-29T05:45:53;379.60;;;108.30;;
48881;SDS011;57063;51.406;-2.402;2023-03-29T05:48:20;388.63;;;113.57;;
48881;SDS011;57063;51.406;-2.402;2023-03-29T05:50:49;397.48;;;112.25;;
48881;SDS011;57063;51.406;-2.402;2023-03-29T05:53:17;442.13;;;116.07;;
48881;SDS011;57063;51.406;-2.402;2023-03-29T05:55:43;424.77;;;115.38;;
48881;SDS011;57063;51.406;-2.402;2023-03-29T05:58:09;436.83;;;117.50;;
48881;SDS011;57063;51.406;-2.402;2023-03-29T06:00:36;429.90;;;116.20;;
48881;SDS011;57063;51.406;-2.402;2023-03-29T06:03:03;438.98;;;118.57;;
48881;SDS011;57063;51.406;-2.402;2023-03-29T06:05:29;419.63;;;114.28;;
48881;SDS011;57063;51.406;-2.402;2023-03-29T06:07:54;411.75;;;112.32;;
48881;SDS011;57063;51.406;-2.402;2023-03-29T06:10:20;395.38;;;113.35;;
48881;SDS011;57063;51.406;-2.402;2023-03-29T06:12:47;390.95;;;113.72;;
48881;SDS011;57063;51.406;-2.402;2023-03-29T06:15:13;402.15;;;114.25;;
48881;SDS011;57063;51.406;-2.402;2023-03-29T06:17:40;400.55;;;114.63;;
48881;SDS011;57063;51.406;-2.402;2023-03-29T06:20:06;402.60;;;112.40;;
48881;SDS011;57063;51.406;-2.402;2023-03-29T06:22:35;392.48;;;112.82;;
48881;SDS011;57063;51.406;-2.402;2023-03-29T06:25:02;379.13;;;110.30;;
48881;SDS011;57063;51.406;-2.402;2023-03-29T06:27:29;381.08;;;111.22;;
48881;SDS011;57063;51.406;-2.402;2023-03-29T06:29:55;381.25;;;110.60;;
48881;SDS011;57063;51.406;-2.402;2023-03-29T06:32:20;387.88;;;111.55;;
48881;SDS011;57063;51.406;-2.402;2023-03-29T06:34:46;354.45;;;108.93;;
48881;SDS011;57063;51.406;-2.402;2023-03-29T06:37:11;385.33;;;112.97;;
48881;SDS011;57063;51.406;-2.402;2023-03-29T06:39:36;397.65;;;114.22;;
48881;SDS011;57063;51.406;-2.402;2023-03-29T06:42:02;408.73;;;115.18;;
48881;SDS011;57063;51.406;-2.402;2023-03-29T06:44:29;400.05;;;113.63;;
48881;SDS011;57063;51.406;-2.402;2023-03-29T06:46:55;386.08;;;113.20;;
48881;SDS011;57063;51.406;-2.402;2023-03-29T06:49:20;396.38;;;115.45;;
48881;SDS011;57063;51.406;-2.402;2023-03-29T06:51:45;406.10;;;117.35;;
48881;SDS011;57063;51.406;-2.402;2023-03-29T06:54:12;398.30;;;117.53;;
48881;SDS011;57063;51.406;-2.402;2023-03-29T06:56:38;396.30;;;116.30;;
48881;SDS011;57063;51.406;-2.402;2023-03-29T06:59:03;393.90;;;115.95;;
48881;SDS011;57063;51.406;-2.402;2023-03-29T07:01:29;389.98;;;116.28;;
48881;SDS011;57063;51.406;-2.402;2023-03-29T07:03:55;400.02;;;116.55;;
48881;SDS011;57063;51.406;-2.402;2023-03-29T07:06:21;353.33;;;112.32;;
48881;SDS011;57063;51.406;-2.402;2023-03-29T07:08:47;395.20;;;116.57;;
48881;SDS011;57063;51.406;-2.402;2023-03-29T07:11:16;372.75;;;114.13;;
48881;SDS011;57063;51.406;-2.402;2023-03-29T07:13:43;492.27;;;128.63;;
48881;SDS011;57063;51.406;-2.402;2023-03-29T07:16:09;482.85;;;128.80;;
48881;SDS011;57063;51.406;-2.402;2023-03-29T07:18:38;459.02;;;127.03;;
48881;SDS011;57063;51.406;-2.402;2023-03-29T07:21:05;472.73;;;127.65;;
48881;SDS011;57063;51.406;-2.402;2023-03-29T07:23:32;476.38;;;130.73;;
48881;SDS011;57063;51.406;-2.402;2023-03-29T07:25:58;473.58;;;127.28;;
48881;SDS011;57063;51.406;-2.402;2023-03-29T07:28:23;460.17;;;125.30;;
48881;SDS011;57063;51.406;-2.402;2023-03-29T07:30:49;500.98;;;131.88;;
48881;SDS011;57063;51.406;-2.402;2023-03-29T07:33:15;494.00;;;131.40;;
48881;SDS011;57063;51.406;-2.402;2023-03-29T07:35:41;498.58;;;131.70;;
48881;SDS011;57063;51.406;-2.402;2023-03-29T07:38:07;456.73;;;125.10;;
48881;SDS011;57063;51.406;-2.402;2023-03-29T07:40:33;443.42;;;119.97;;
48881;SDS011;57063;51.406;-2.402;2023-03-29T07:43:00;401.10;;;117.07;;
48881;SDS011;57063;51.406;-2.402;2023-03-29T07:45:27;402.08;;;113.65;;
48881;SDS011;57063;51.406;-2.402;2023-03-29T07:47:54;385.02;;;113.82;;
48881;SDS011;57063;51.406;-2.402;2023-03-29T07:50:21;463.52;;;127.10;;
48881;SDS011;57063;51.406;-2.402;2023-03-29T07:52:47;396.58;;;115.45;;
48881;SDS011;57063;51.406;-2.402;2023-03-29T07:55:13;388.40;;;117.63;;
48881;SDS011;57063;51.406;-2.402;2023-03-29T07:57:39;564.20;;;136.93;;
48881;SDS011;57063;51.406;-2.402;2023-03-29T08:00:05;577.42;;;134.57;;
48881;SDS011;57063;51.406;-2.402;2023-03-29T08:02:41;578.97;;;135.95;;
48881;SDS011;57063;51.406;-2.402;2023-03-29T08:05:08;575.83;;;134.57;;
48881;SDS011;57063;51.406;-2.402;2023-03-29T08:07:34;578.40;;;137.13;;
48881;SDS011;57063;51.406;-2.402;2023-03-29T08:09:59;583.08;;;136.75;;
48881;SDS011;57063;51.406;-2.402;2023-03-29T08:12:25;581.58;;;138.00;;
48881;SDS011;57063;51.406;-2.402;2023-03-29T08:14:50;565.65;;;131.98;;
48881;SDS011;57063;51.406;-2.402;2023-03-29T08:17:15;580.05;;;136.95;;
48881;SDS011;57063;51.406;-2.402;2023-03-29T08:19:41;581.97;;;133.73;;
48881;SDS011;57063;51.406;-2.402;2023-03-29T08:22:06;578.72;;;137.18;;
48881;SDS011;57063;51.406;-2.402;2023-03-29T08:24:32;570.65;;;133.65;;
48881;SDS011;57063;51.406;-2.402;2023-03-29T08:26:57;549.72;;;137.07;;
48881;SDS011;57063;51.406;-2.402;2023-03-29T08:29:22;547.47;;;136.70;;
48881;SDS011;57063;51.406;-2.402;2023-03-29T08:31:48;573.50;;;131.63;;
48881;SDS011;57063;51.406;-2.402;2023-03-29T08:34:14;575.80;;;134.20;;
48881;SDS011;57063;51.406;-2.402;2023-03-29T08:36:40;569.97;;;131.82;;
48881;SDS011;57063;51.406;-2.402;2023-03-29T08:39:05;565.08;;;130.10;;
48881;SDS011;57063;51.406;-2.402;2023-03-29T08:41:41;518.47;;;136.68;;
48881;SDS011;57063;51.406;-2.402;2023-03-29T08:49:37;561.80;;;135.48;;
48881;SDS011;57063;51.406;-2.402;2023-03-29T08:52:09;459.70;;;130.70;;
48881;SDS011;57063;51.406;-2.402;2023-03-29T08:54:44;466.20;;;131.02;;
48881;SDS011;57063;51.406;-2.402;2023-03-29T08:57:23;572.42;;;133.32;;
48881;SDS011;57063;51.406;-2.402;2023-03-29T08:59:53;266.20;;;99.60;;
48881;SDS011;57063;51.406;-2.402;2023-03-29T09:02:22;326.70;;;106.32;;
48881;SDS011;57063;51.406;-2.402;2023-03-29T09:04:50;356.98;;;115.32;;
48881;SDS011;57063;51.406;-2.402;2023-03-29T09:07:20;420.27;;;122.03;;
48881;SDS011;57063;51.406;-2.402;2023-03-29T09:09:46;454.65;;;126.00;;
48881;SDS011;57063;51.406;-2.402;2023-03-29T09:28:31;518.58;;;134.60;;
48881;SDS011;57063;51.406;-2.402;2023-03-29T09:30:40;537.90;;;138.10;;
48881;SDS011;57063;51.406;-2.402;2023-03-29T09:36:01;503.90;;;135.95;;
48881;SDS011;57063;51.406;-2.402;2023-03-29T09:38:36;482.60;;;133.30;;
48881;SDS011;57063;51.406;-2.402;2023-03-29T09:43:56;533.97;;;140.82;;
48881;SDS011;57063;51.406;-2.402;2023-03-29T09:46:27;497.52;;;135.82;;
48881;SDS011;57063;51.406;-2.402;2023-03-29T09:48:58;487.67;;;133.93;;
48881;SDS011;57063;51.406;-2.402;2023-03-29T09:51:26;588.65;;;144.35;;
48881;SDS011;57063;51.406;-2.402;2023-03-29T09:53:55;486.05;;;136.10;;
48881;SDS011;57063;51.406;-2.402;2023-03-29T09:56:21;392.92;;;121.80;;
48881;SDS011;57063;51.406;-2.402;2023-03-29T09:58:47;501.52;;;136.27;;
48881;SDS011;57063;51.406;-2.402;2023-03-29T10:01:14;458.20;;;131.93;;
48881;SDS011;57063;51.406;-2.402;2023-03-29T10:03:46;440.30;;;130.50;;
48881;SDS011;57063;51.406;-2.402;2023-03-29T10:06:12;482.00;;;136.77;;
48881;SDS011;57063;51.406;-2.402;2023-03-29T10:08:59;561.83;;;141.48;;
48881;SDS011;57063;51.406;-2.402;2023-03-29T10:11:31;525.72;;;140.43;;
48881;SDS011;57063;51.406;-2.402;2023-03-29T10:14:02;511.63;;;142.38;;
48881;SDS011;57063;51.406;-2.402;2023-03-29T10:19:21;572.15;;;139.68;;
48881;SDS011;57063;51.406;-2.402;2023-03-29T10:21:54;537.53;;;140.85;;
48881;SDS011;57063;51.406;-2.402;2023-03-29T10:24:23;568.08;;;142.55;;
48881;SDS011;57063;51.406;-2.402;2023-03-29T10:26:51;565.38;;;139.45;;
48881;SDS011;57063;51.406;-2.402;2023-03-29T10:29:21;562.22;;;137.73;;
48881;SDS011;57063;51.406;-2.402;2023-03-29T10:31:48;586.50;;;142.73;;
48881;SDS011;57063;51.406;-2.402;2023-03-29T10:34:15;506.33;;;137.25;;
48881;SDS011;57063;51.406;-2.402;2023-03-29T10:36:43;551.88;;;142.30;;
48881;SDS011;57063;51.406;-2.402;2023-03-29T10:39:16;572.78;;;137.90;;
48881;SDS011;57063;51.406;-2.402;2023-03-29T10:41:43;426.48;;;129.27;;
48881;SDS011;57063;51.406;-2.402;2023-03-29T10:44:31;569.15;;;137.55;;
48881;SDS011;57063;51.406;-2.402;2023-03-29T10:47:06;421.50;;;126.28;;
48881;SDS011;57063;51.406;-2.402;2023-03-29T10:49:44;468.10;;;130.05;;
48881;SDS011;57063;51.406;-2.402;2023-03-29T10:52:13;492.30;;;133.50;;
48881;SDS011;57063;51.406;-2.402;2023-03-29T10:54:41;494.17;;;140.32;;
48881;SDS011;57063;51.406;-2.402;2023-03-29T10:57:07;507.33;;;138.75;;
48881;SDS011;57063;51.406;-2.402;2023-03-29T11:04:46;520.30;;;136.75;;
48881;SDS011;57063;51.406;-2.402;2023-03-29T11:13:20;551.90;;;142.15;;
48881;SDS011;57063;51.406;-2.402;2023-03-29T11:32:13;580.20;;;144.35;;
48881;SDS011;57063;51.406;-2.402;2023-03-29T11:37:23;594.22;;;147.20;;
48881;SDS011;57063;51.406;-2.402;2023-03-29T11:40:15;592.90;;;148.80;;
48881;SDS011;57063;51.406;-2.402;2023-03-29T11:42:54;588.20;;;144.85;;
48881;SDS011;57063;51.406;-2.402;2023-03-29T11:45:26;574.00;;;138.10;;
48881;SDS011;57063;51.406;-2.402;2023-03-29T11:47:56;571.10;;;137.25;;
48881;SDS011;57063;51.406;-2.402;2023-03-29T11:50:29;571.53;;;139.38;;
48881;SDS011;57063;51.406;-2.402;2023-03-29T11:53:13;576.47;;;140.80;;
48881;SDS011;57063;51.406;-2.402;2023-03-29T11:55:44;570.83;;;138.75;;
48881;SDS011;57063;51.406;-2.402;2023-03-29T11:58:15;574.53;;;141.10;;
48881;SDS011;57063;51.406;-2.402;2023-03-29T12:00:50;575.38;;;140.57;;
48881;SDS011;57063;51.406;-2.402;2023-03-29T12:06:25;576.72;;;140.73;;
48881;SDS011;57063;51.406;-2.402;2023-03-29T12:08:55;578.13;;;141.55;;
48881;SDS011;57063;51.406;-2.402;2023-03-29T12:11:29;573.17;;;141.23;;
48881;SDS011;57063;51.406;-2.402;2023-03-29T12:14:17;576.03;;;139.32;;
48881;SDS011;57063;51.406;-2.402;2023-03-29T12:16:49;578.60;;;140.70;;
48881;SDS011;57063;51.406;-2.402;2023-03-29T12:21:59;573.13;;;137.02;;
48881;SDS011;57063;51.406;-2.402;2023-03-29T12:24:28;580.58;;;140.80;;
48881;SDS011;57063;51.406;-2.402;2023-03-29T12:29:50;586.47;;;142.93;;
48881;SDS011;57063;51.406;-2.402;2023-03-29T12:40:22;580.20;;;138.15;;
48881;SDS011;57063;51.406;-2.402;2023-03-29T12:47:45;578.35;;;139.40;;
48881;SDS011;57063;51.406;-2.402;2023-03-29T12:50:21;578.53;;;139.10;;
48881;SDS011;57063;51.406;-2.402;2023-03-29T12:53:00;574.33;;;139.65;;
48881;SDS011;57063;51.406;-2.402;2023-03-29T12:58:19;582.67;;;141.30;;
48881;SDS011;57063;51.406;-2.402;2023-03-29T13:00:56;581.17;;;142.35;;
48881;SDS011;57063;51.406;-2.402;2023-03-29T13:06:04;580.88;;;144.60;;
48881;SDS011;57063;51.406;-2.402;2023-03-29T13:08:37;576.30;;;140.88;;
48881;SDS011;57063;51.406;-2.402;2023-03-29T13:14:15;572.20;;;139.98;;
48881;SDS011;57063;51.406;-2.402;2023-03-29T13:16:43;574.65;;;139.00;;
48881;SDS011;57063;51.406;-2.402;2023-03-29T13:22:03;588.95;;;149.80;;
48881;SDS011;57063;51.406;-2.402;2023-03-29T13:27:50;584.58;;;143.10;;
48881;SDS011;57063;51.406;-2.402;2023-03-29T13:38:29;472.05;;;139.65;;
48881;SDS011;57063;51.406;-2.402;2023-03-29T13:43:49;443.67;;;131.13;;
48881;SDS011;57063;51.406;-2.402;2023-03-29T13:57:17;578.10;;;140.93;;
48881;SDS011;57063;51.406;-2.402;2023-03-29T14:02:40;379.45;;;118.18;;
48881;SDS011;57063;51.406;-2.402;2023-03-29T14:05:29;370.77;;;117.40;;
48881;SDS011;57063;51.406;-2.402;2023-03-29T14:08:09;312.88;;;111.68;;
48881;SDS011;57063;51.406;-2.402;2023-03-29T14:10:41;276.83;;;108.60;;
48881;SDS011;57063;51.406;-2.402;2023-03-29T14:13:12;286.52;;;111.75;;
48881;SDS011;57063;51.406;-2.402;2023-03-29T14:15:43;233.15;;;100.38;;
48881;SDS011;57063;51.406;-2.402;2023-03-29T14:18:14;246.27;;;105.53;;
48881;SDS011;57063;51.406;-2.402;2023-03-29T14:20:46;318.38;;;112.38;;
48881;SDS011;57063;51.406;-2.402;2023-03-29T14:23:16;276.23;;;113.13;;
48881;SDS011;57063;51.406;-2.402;2023-03-29T14:25:45;379.92;;;123.70;;
48881;SDS011;57063;51.406;-2.402;2023-03-29T14:28:17;420.92;;;131.18;;
48881;SDS011;57063;51.406;-2.402;2023-03-29T14:30:45;449.95;;;134.45;;
48881;SDS011;57063;51.406;-2.402;2023-03-29T14:33:32;472.40;;;138.88;;
48881;SDS011;57063;51.406;-2.402;2023-03-29T14:36:02;513.03;;;143.60;;
48881;SDS011;57063;51.406;-2.402;2023-03-29T14:38:29;555.88;;;144.63;;
48881;SDS011;57063;51.406;-2.402;2023-03-29T14:40:59;566.88;;;145.85;;
48881;SDS011;57063;51.406;-2.402;2023-03-29T14:43:26;577.83;;;142.23;;
48881;SDS011;57063;51.406;-2.402;2023-03-29T14:45:55;569.05;;;134.20;;
48881;SDS011;57063;51.406;-2.402;2023-03-29T14:48:22;577.42;;;140.65;;
48881;SDS011;57063;51.406;-2.402;2023-03-29T14:50:48;592.65;;;148.98;;
48881;SDS011;57063;51.406;-2.402;2023-03-29T14:53:16;578.28;;;138.02;;
48881;SDS011;57063;51.406;-2.402;2023-03-29T14:55:44;577.17;;;138.18;;
48881;SDS011;57063;51.406;-2.402;2023-03-29T14:58:18;579.38;;;139.38;;
48881;SDS011;57063;51.406;-2.402;2023-03-29T15:00:47;581.65;;;142.40;;
48881;SDS011;57063;51.406;-2.402;2023-03-29T15:03:15;576.53;;;140.18;;
48881;SDS011;57063;51.406;-2.402;2023-03-29T15:05:41;580.78;;;141.60;;
48881;SDS011;57063;51.406;-2.402;2023-03-29T15:08:12;580.53;;;140.20;;
48881;SDS011;57063;51.406;-2.402;2023-03-29T15:10:41;581.28;;;144.77;;
48881;SDS011;57063;51.406;-2.402;2023-03-29T15:13:10;583.22;;;142.02;;
48881;SDS011;57063;51.406;-2.402;2023-03-29T15:15:41;586.35;;;144.98;;
48881;SDS011;57063;51.406;-2.402;2023-03-29T15:18:08;579.92;;;141.60;;
48881;SDS011;57063;51.406;-2.402;2023-03-29T15:20:38;581.40;;;138.68;;
48881;SDS011;57063;51.406;-2.402;2023-03-29T15:25:37;583.22;;;139.77;;
48881;SDS011;57063;51.406;-2.402;2023-03-29T15:28:29;576.17;;;137.95;;
48881;SDS011;57063;51.406;-2.402;2023-03-29T15:31:08;575.92;;;137.57;;
48881;SDS011;57063;51.406;-2.402;2023-03-29T15:33:36;580.25;;;139.98;;
48881;SDS011;57063;51.406;-2.402;2023-03-29T15:36:04;582.70;;;138.52;;
48881;SDS011;57063;51.406;-2.402;2023-03-29T15:38:31;581.88;;;139.77;;
48881;SDS011;57063;51.406;-2.402;2023-03-29T15:40:58;600.65;;;148.43;;
48881;SDS011;57063;51.406;-2.402;2023-03-29T15:43:24;582.42;;;138.70;;
48881;SDS011;57063;51.406;-2.402;2023-03-29T15:45:51;578.95;;;139.52;;
48881;SDS011;57063;51.406;-2.402;2023-03-29T15:48:17;598.90;;;149.32;;
48881;SDS011;57063;51.406;-2.402;2023-03-29T15:50:45;600.22;;;149.88;;
48881;SDS011;57063;51.406;-2.402;2023-03-29T15:53:11;590.15;;;141.70;;
48881;SDS011;57063;51.406;-2.402;2023-03-29T15:55:41;578.35;;;139.75;;
48881;SDS011;57063;51.406;-2.402;2023-03-29T15:58:13;576.10;;;140.02;;
48881;SDS011;57063;51.406;-2.402;2023-03-29T16:00:40;574.20;;;142.07;;
48881;SDS011;57063;51.406;-2.402;2023-03-29T16:03:10;580.78;;;140.82;;
48881;SDS011;57063;51.406;-2.402;2023-03-29T16:05:39;579.95;;;141.60;;
48881;SDS011;57063;51.406;-2.402;2023-03-29T16:08:04;567.80;;;136.95;;